Time;durP1;ratioP1;P1;durP2;ratioP2;P2;SDS_P1;SDS_P2;PMS_P1;PMS_P2;Temp;Humidity;BMP_temperature;BMP_pressure;BME280_temperature;BME280_humidity;BME280_pressure;Samples;Min_cycle;Max_cycle;Signal;HPM_P1;HPM_P2
2022/08/01 00:02:20;;;;;;;0.80;0.47;;;;;;;;;;20917026;28;20247;-70
2022/08/01 00:12:22;;;;;;;1.90;0.60;;;;;;;;;;20903638;28;20228;-70
2022/08/01 00:22:24;;;;;;;0.45;0.45;;;;;;;;;;20903286;28;20216;-70
2022/08/01 00:32:25;;;;;;;0.82;0.43;;;;;;;;;;20885840;28;20247;-70
2022/08/01 00:42:27;;;;;;;0.57;0.40;;;;;;;;;;20902747;28;20243;-70
2022/08/01 00:52:29;;;;;;;0.85;0.50;;;;;;;;;;20913498;28;20292;-70
2022/08/01 01:02:32;;;;;;;0.95;0.40;;;;;;;;;;20900201;28;20207;-70
2022/08/01 01:12:52;;;;;;;0.88;0.50;;;;;;;;;;20917725;28;20218;-70
2022/08/01 01:22:54;;;;;;;0.68;0.43;;;;;;;;;;20917492;28;20206;-70
2022/08/01 01:32:58;;;;;;;1.67;0.40;;;;;;;;;;20915706;28;20220;-70
2022/08/01 01:43:00;;;;;;;0.55;0.40;;;;;;;;;;20896294;28;20201;-70
2022/08/01 01:53:03;;;;;;;2.22;0.35;;;26.40;93.20;;;;;;20914233;28;20542;-70
2022/08/01 02:03:06;;;;;;;1.80;0.50;;;;;;;;;;20921734;28;20219;-70
2022/08/01 02:13:08;;;;;;;0.85;0.40;;;;;;;;;;20921230;28;20585;-70
2022/08/01 02:23:13;;;;;;;0.77;0.47;;;;;;;;;;20912733;28;20266;-70
2022/08/01 02:33:22;;;;;;;0.22;0.22;;;26.10;95.40;;;;;;21158185;23;20610;-71
2022/08/01 02:43:27;;;;;;;0.88;0.32;;;26.00;96.40;;;;;;21184595;27;20628;-71
2022/08/01 02:53:31;;;;;;;0.75;0.28;;;;;;;;;;21116942;27;20232;-71
2022/08/01 03:03:34;;;;;;;0.93;0.47;;;;;;;;;;21127140;28;20219;-71
2022/08/01 03:13:37;;;;;;;2.47;0.28;;;25.80;95.80;;;;;;21126026;28;20245;-71
2022/08/01 03:23:40;;;;;;;0.38;0.28;;;25.60;96.30;;;;;;21108291;28;20594;-71
2022/08/01 03:33:42;;;;;;;1.83;0.30;;;;;;;;;;21109922;27;20230;-71
2022/08/01 03:43:55;;;;;;;0.90;0.30;;;25.60;93.60;;;;;;21112424;27;20272;-71
2022/08/01 03:53:58;;;;;;;1.00;0.32;;;;;;;;;;21102842;27;20222;-73
2022/08/01 04:04:01;;;;;;;1.90;0.50;;;;;;;;;;21118005;27;20249;-73
2022/08/01 04:14:03;;;;;;;0.70;0.50;;;26.10;92.70;;;;;;21038891;28;20264;-72
2022/08/01 04:24:14;;;;;;;0.60;0.40;;;25.20;98.90;;;;;;21088262;28;20275;-72
2022/08/01 04:34:20;;;;;;;1.35;0.45;;;25.20;99.60;;;;;;21088814;28;20761;-71
2022/08/01 04:44:23;;;;;;;5.10;0.75;;;25.20;99.90;;;;;;21088100;28;20751;-71
2022/08/01 04:54:36;;;;;;;1.85;0.68;;;25.10;99.90;;;;;;21120904;28;20221;-71
2022/08/01 05:04:39;;;;;;;1.08;0.35;;;;;;;;;;21120934;28;20575;-72
2022/08/01 05:14:41;;;;;;;2.33;0.50;;;;;;;;;;21120222;28;20765;-71
2022/08/01 05:24:44;;;;;;;0.32;0.30;;;;;;;;;;21118267;28;20276;-72
2022/08/01 05:34:46;;;;;;;1.42;0.47;;;;;;;;;;21086839;28;20595;-72
2022/08/01 05:44:48;;;;;;;0.43;0.30;;;;;;;;;;21112284;28;20220;-72
2022/08/01 05:54:50;;;;;;;2.55;0.40;;;;;;;;;;21096350;27;20223;-72
2022/08/01 06:04:51;;;;;;;0.35;0.20;;;;;;;;;;21160869;27;20218;-71
2022/08/01 06:14:53;;;;;;;0.95;0.30;;;;;;;;;;21197764;27;20584;-71
2022/08/01 06:24:55;;;;;;;1.02;0.38;;;;;;;;;;21136125;27;20239;-72
2022/08/01 06:34:57;;;;;;;0.20;0.20;;;24.80;95.30;;;;;;21196228;27;20221;-72
2022/08/01 06:44:59;;;;;;;0.55;0.30;;;;;;;;;;21153501;27;20258;-71
2022/08/01 06:55:01;;;;;;;0.55;0.30;;;;;;;;;;21073108;28;20286;-71
2022/08/01 07:05:03;;;;;;;0.88;0.30;;;25.40;99.10;;;;;;21073185;28;20268;-72
2022/08/01 07:15:06;;;;;;;0.50;0.30;;;25.60;99.90;;;;;;21125514;28;20218;-71
2022/08/01 07:25:09;;;;;;;0.68;0.38;;;;;;;;;;21091154;28;20218;-72
2022/08/01 07:35:10;;;;;;;2.95;0.40;;;;;;;;;;21130444;27;20607;-70
2022/08/01 07:45:13;;;;;;;0.57;0.28;;;25.20;98.30;;;;;;21152458;27;20213;-71
2022/08/01 07:55:15;;;;;;;2.47;0.30;;;;;;;;;;21102543;28;20219;-70
2022/08/01 08:05:17;;;;;;;0.85;0.25;;;;;;;;;;21088420;28;20275;-70
2022/08/01 08:15:19;;;;;;;0.32;0.20;;;;;;;;;;21120055;27;20222;-70
2022/08/01 08:25:22;;;;;;;0.30;0.30;;;27.10;94.10;;;;;;21161064;27;20255;-70
2022/08/01 08:35:23;;;;;;;0.20;0.20;;;;;;;;;;21188426;22;20346;-72
2022/08/01 08:45:25;;;;;;;1.20;0.30;;;;;;;;;;21225740;28;20579;-72
2022/08/01 08:55:27;;;;;;;1.23;0.20;;;26.80;96.50;;;;;;21210037;28;20274;-73
2022/08/01 09:05:29;;;;;;;1.05;0.20;;;;;;;;;;21236839;28;20202;-70
2022/08/01 09:15:53;;;;;;;0.65;0.30;;;26.70;96.70;;;;;;21247840;27;20206;-75
2022/08/01 09:26:05;;;;;;;0.20;0.20;;;;;;;;;;21160873;27;20768;-72
2022/08/01 09:36:06;;;;;;;1.08;0.47;;;;;;;;;;21161826;28;20214;-72
2022/08/01 09:46:11;;;;;;;0.50;0.30;;;;;;;;;;21175622;27;20257;-72
2022/08/01 09:56:13;;;;;;;0.38;0.20;;;;;;;;;;21167508;27;20261;-72
2022/08/01 10:06:21;;;;;;;0.65;0.25;;;27.30;97.90;;;;;;21096532;28;20211;-72
2022/08/01 10:16:26;;;;;;;1.00;0.32;;;27.30;90.40;;;;;;21141418;27;20630;-71
2022/08/01 10:26:32;;;;;;;0.65;0.30;;;28.30;90.60;;;;;;21206518;27;20642;-72
2022/08/01 10:36:36;;;;;;;0.55;0.20;;;28.80;91.80;;;;;;21212679;27;20214;-72
2022/08/01 10:46:41;;;;;;;1.40;0.25;;;;;;;;;;21243532;27;20219;-72
2022/08/01 10:56:47;;;;;;;0.73;0.30;;;;;;;;;;21148713;28;20238;-71
2022/08/01 11:06:53;;;;;;;0.30;0.20;;;;;;;;;;21158857;28;20199;-73
2022/08/01 11:16:55;;;;;;;0.43;0.30;;;;;;;;;;21107126;28;20250;-73
2022/08/01 11:27:15;;;;;;;0.63;0.40;;;;;;;;;;21159622;28;20260;-73
2022/08/01 11:37:24;;;;;;;1.15;0.30;;;28.60;91.80;;;;;;21156922;28;20765;-68
2022/08/01 11:47:45;;;;;;;1.10;0.60;;;;;;;;;;21156605;28;20236;-76
2022/08/01 11:57:47;;;;;;;2.00;0.30;;;;;;;;;;21166993;27;20230;-75
2022/08/01 12:07:52;;;;;;;0.28;0.28;;;;;;;;;;21184740;27;20262;-70
2022/08/01 12:18:05;;;;;;;0.20;0.20;;;;;;;;;;21238505;27;20348;-72
2022/08/01 12:28:09;;;;;;;0.50;0.30;;;28.60;91.80;;;;;;21224945;28;20201;-71
2022/08/01 12:38:16;;;;;;;0.30;0.25;;;28.40;88.80;;;;;;21238861;28;20221;-74
2022/08/01 12:48:23;;;;;;;0.20;0.20;;;;;;;;;;21182424;27;20239;-69
2022/08/01 12:58:24;;;;;;;1.20;0.30;;;;;;;;;;21183988;27;20217;-70
2022/08/01 13:08:32;;;;;;;0.65;0.22;;;29.60;76.20;;;;;;21254475;27;20206;-69
2022/08/01 13:18:36;;;;;;;2.80;0.50;;;;;;;;;;21248517;27;20220;-68
2022/08/01 13:28:38;;;;;;;2.15;0.30;;;;;;;;;;21166991;28;20318;-68
2022/08/01 13:49:01;;;;;;;0.35;0.20;;;29.10;84.70;;;;;;21166078;27;20219;-69
2022/08/01 13:59:03;;;;;;;0.47;0.20;;;;;;;;;;21177903;27;20220;-70
2022/08/01 14:09:05;;;;;;;0.20;0.20;;;;;;;;;;21209397;27;20212;-71
2022/08/01 14:19:07;;;;;;;0.65;0.20;;;;;;;;;;21217095;27;20226;-71
2022/08/01 14:29:09;;;;;;;3.05;0.30;;;;;;;;;;21229436;27;20248;-71
2022/08/01 14:39:12;;;;;;;0.30;0.22;;;;;;;;;;21247686;27;20251;-71
2022/08/01 14:49:13;;;;;;;1.08;0.40;;;;;;;;;;21192894;27;20614;-70
2022/08/01 14:59:15;;;;;;;1.20;0.40;;;;;;;;;;21228360;27;20218;-69
2022/08/01 15:09:17;;;;;;;1.35;0.50;;;;;;;;;;21244012;27;20218;-70
2022/08/01 15:19:19;;;;;;;0.55;0.20;;;;;;;;;;21217035;22;20231;-70
2022/08/01 15:29:20;;;;;;;0.20;0.20;;;;;;;;;;21158502;28;20204;-71
2022/08/01 15:39:22;;;;;;;0.30;0.30;;;;;;;;;;21158039;28;20610;-71
2022/08/01 15:49:24;;;;;;;0.20;0.20;;;;;;;;;;21058415;28;20212;-71
2022/08/01 15:59:25;;;;;;;0.32;0.20;;;;;;;;;;21067404;28;20284;-71
2022/08/01 16:09:27;;;;;;;0.30;0.20;;;;;;;;;;21058123;28;20219;-70
2022/08/01 16:19:29;;;;;;;0.40;0.20;;;;;;;;;;21065879;28;20212;-68
2022/08/01 16:29:31;;;;;;;0.20;0.20;;;;;;;;;;21149644;28;20198;-70
2022/08/01 16:39:33;;;;;;;1.35;0.20;;;;;;;;;;21094654;28;20224;-70
2022/08/01 16:49:34;;;;;;;0.30;0.20;;;;;;;;;;21069060;28;20219;-72
2022/08/01 16:59:37;;;;;;;0.20;0.20;;;;;;;;;;21044438;28;20693;-69
2022/08/01 17:09:39;;;;;;;0.20;0.20;;;;;;;;;;21036013;28;20224;-71
2022/08/01 17:19:42;;;;;;;0.38;0.20;;;;;;;;;;21043606;28;20771;-70
2022/08/01 17:29:43;;;;;;;0.40;0.40;;;;;;;;;;21051763;28;20211;-70
2022/08/01 17:39:45;;;;;;;0.20;0.20;;;;;;;;;;21066045;28;20766;-69
2022/08/01 17:49:47;;;;;;;1.10;0.40;;;;;;;;;;21081367;28;20209;-70
2022/08/01 17:59:49;;;;;;;0.25;0.20;;;;;;;;;;21087514;28;20219;-70
2022/08/01 18:09:51;;;;;;;0.30;0.22;;;;;;;;;;21092038;28;20211;-70
2022/08/01 18:19:53;;;;;;;0.80;0.20;;;;;;;;;;21075386;28;20223;-70
2022/08/01 18:29:55;;;;;;;0.75;0.20;;;;;;;;;;21105076;28;20207;-70
2022/08/01 18:39:56;;;;;;;0.55;0.20;;;;;;;;;;21056945;28;20262;-70
2022/08/01 18:49:58;;;;;;;0.85;0.38;;;;;;;;;;21088102;28;20673;-70
2022/08/01 19:00:00;;;;;;;1.77;0.50;;;;;;;;;;21157640;28;20223;-70
2022/08/01 19:10:02;;;;;;;0.50;0.40;;;27.70;85.40;;;;;;21108638;28;20216;-70
2022/08/01 19:20:04;;;;;;;2.45;0.60;;;27.60;89.50;;;;;;21060451;28;20631;-69
2022/08/01 19:30:22;;;;;;;0.65;0.52;;;;;;;;;;21061128;28;20200;-70
2022/08/01 19:40:24;;;;;;;3.10;0.60;;;;;;;;;;21052709;28;20220;-70
2022/08/01 19:50:26;;;;;;;0.93;0.65;;;;;;;;;;21076503;28;20211;-70
2022/08/01 20:00:28;;;;;;;0.93;0.63;;;;;;;;;;21055432;28;20257;-70
2022/08/01 20:10:31;;;;;;;1.90;0.73;;;;;;;;;;21056727;28;20288;-70
2022/08/01 20:20:35;;;;;;;1.15;0.73;;;;;;;;;;21077645;28;20616;-69
2022/08/01 20:30:37;;;;;;;1.40;0.85;;;;;;;;;;21089610;28;20685;-69
2022/08/01 20:40:42;;;;;;;3.63;1.00;;;27.00;97.40;;;;;;21040803;28;20218;-69
2022/08/01 21:01:05;;;;;;;2.78;0.98;;;;;;;;;;21145618;28;20251;-69
2022/08/01 21:11:12;;;;;;;1.27;0.60;;;;;;;;;;21159894;28;20214;-69
2022/08/01 21:21:15;;;;;;;1.63;0.50;;;;;;;;;;21128677;22;20222;-69
2022/08/01 21:31:18;;;;;;;0.60;0.50;;;;;;;;;;21052170;28;20272;-69
2022/08/01 21:41:20;;;;;;;0.80;0.50;;;26.60;91.30;;;;;;21044109;28;20619;-70
2022/08/01 21:51:21;;;;;;;0.82;0.57;;;;;;;;;;21046722;28;20260;-70
2022/08/01 22:01:23;;;;;;;1.80;0.85;;;;;;;;;;20989780;28;20218;-70
2022/08/01 22:11:27;;;;;;;1.35;0.60;;;;;;;;;;21028746;28;20227;-70
2022/08/01 22:21:30;;;;;;;1.90;0.95;;;;;;;;;;21043076;28;20220;-70
2022/08/01 22:31:32;;;;;;;1.02;0.60;;;26.20;93.80;;;;;;20986120;28;20212;-70
2022/08/01 22:41:35;;;;;;;0.70;0.60;;;;;;;;;;20990827;28;20216;-70
2022/08/01 22:51:48;;;;;;;1.35;0.70;;;26.00;86.30;;;;;;20991824;28;20482;-70
2022/08/01 23:01:50;;;;;;;1.58;0.70;;;26.00;97.80;;;;;;21047641;28;20802;-70
2022/08/01 23:11:52;;;;;;;1.38;0.70;;;26.00;95.60;;;;;;21074922;28;20757;-70
2022/08/01 23:21:54;;;;;;;0.90;0.68;;;;;;;;;;21041491;28;20233;-70
2022/08/01 23:31:56;;;;;;;0.73;0.57;;;;;;;;;;21033341;28;20752;-70
2022/08/01 23:41:57;;;;;;;1.42;0.82;;;;;;;;;;21072398;28;20265;-70
2022/08/01 23:51:59;;;;;;;1.13;0.73;;;;;;;;;;21037171;28;20289;-70
